Time;durP1;ratioP1;P1;durP2;ratioP2;P2;SDS_P1;SDS_P2;PMS_P1;PMS_P2;Temp;Humidity;BMP_temperature;BMP_pressure;BME280_temperature;BME280_humidity;BME280_pressure;Samples;Min_cycle;Max_cycle;Signal;HPM_P1;HPM_P2
2023/11/05 00:02:48;;;;;;;6.85;3.92;;;;;;;6.34;72.50;97244.31;30841258;28;124458;-63
2023/11/05 00:17:48;;;;;;;5.40;3.65;;;;;;;6.41;72.67;97234.47;30840309;28;125498;-63
2023/11/05 00:32:49;;;;;;;5.63;3.17;;;;;;;6.57;72.70;97216.44;30839956;28;124651;-63
2023/11/05 00:47:49;;;;;;;7.88;2.90;;;;;;;6.75;72.35;97205.91;30840082;28;97204;-63
2023/11/05 01:02:49;;;;;;;6.63;2.70;;;;;;;6.89;72.44;97248.91;30836389;28;124687;-62
2023/11/05 01:17:49;;;;;;;6.38;3.03;;;;;;;7.09;72.50;97259.31;30835894;28;125513;-62
2023/11/05 01:32:50;;;;;;;5.47;2.17;;;;;;;7.15;72.04;97244.38;30835080;28;124432;-62
2023/11/05 01:47:51;;;;;;;4.13;2.00;;;;;;;7.28;72.04;97211.63;30834600;28;98196;-62
2023/11/05 02:02:51;;;;;;;5.37;1.93;;;;;;;7.57;72.07;97188.03;30849438;28;97518;-62
2023/11/05 02:17:52;;;;;;;4.07;1.70;;;;;;;7.91;70.89;97165.34;30852253;28;108548;-63
2023/11/05 02:32:52;;;;;;;2.25;1.65;;;;;;;8.14;70.63;97092.97;30850006;28;126816;-62
2023/11/05 02:47:52;;;;;;;2.25;1.60;;;;;;;8.37;70.13;97117.88;30849377;28;96674;-62
2023/11/05 03:02:53;;;;;;;2.53;1.17;;;;;;;8.48;69.41;97120.81;30846020;28;126881;-62
2023/11/05 03:17:53;;;;;;;2.28;1.67;;;;;;;8.49;69.09;97109.13;30845385;28;126825;-62
2023/11/05 03:32:53;;;;;;;6.32;1.63;;;;;;;8.50;68.79;97085.00;30845697;28;96644;-62
2023/11/05 03:47:54;;;;;;;3.22;1.60;;;;;;;8.67;68.47;97103.69;30843328;28;126803;-62
2023/11/05 04:02:54;;;;;;;2.85;1.52;;;;;;;8.83;67.94;97125.22;30841300;28;125558;-62
2023/11/05 04:17:54;;;;;;;3.10;1.75;;;;;;;8.81;67.57;97133.44;30840431;28;97231;-62
2023/11/05 04:32:55;;;;;;;3.03;1.50;;;;;;;8.84;67.50;97148.09;30838129;28;102106;-62
2023/11/05 04:47:55;;;;;;;1.88;1.25;;;;;;;8.80;67.03;97115.88;30836327;28;126743;-62
2023/11/05 05:02:55;;;;;;;4.88;1.65;;;;;;;8.69;67.50;97088.31;30834219;28;119668;-63
2023/11/05 05:17:55;;;;;;;1.88;1.33;;;;;;;8.57;67.50;97063.66;30833703;28;126553;-63
2023/11/05 05:32:56;;;;;;;1.85;1.40;;;;;;;8.52;68.04;97061.72;30842702;28;126608;-63
2023/11/05 05:47:57;;;;;;;4.40;1.30;;;;;;;8.50;67.86;97036.47;30854054;28;97162;-62
2023/11/05 06:02:57;;;;;;;2.55;1.50;;;;;;;8.53;68.29;97033.34;30851383;28;124397;-63
2023/11/05 06:17:58;;;;;;;1.80;1.20;;;;;;;8.76;68.08;97057.19;30849159;28;96616;-63
2023/11/05 06:32:58;;;;;;;3.13;1.30;;;;;;;9.18;67.66;97053.44;30847620;28;125473;-63
2023/11/05 06:47:58;;;;;;;2.05;1.17;;;;;;;9.34;66.81;97029.81;30845325;28;96988;-62
2023/11/05 07:02:58;;;;;;;3.30;1.20;;;;;;;9.38;66.61;97042.38;30843047;28;96740;-62
2023/11/05 07:17:59;;;;;;;1.60;1.08;;;;;;;9.60;66.52;97041.66;30842034;28;106922;-62
2023/11/05 07:32:59;;;;;;;3.00;1.00;;;;;;;9.83;65.40;97033.50;30840163;28;124652;-63
2023/11/05 07:47:59;;;;;;;1.50;0.75;;;;;;;9.91;65.40;97034.13;30839836;28;97135;-63
2023/11/05 08:03:00;;;;;;;2.15;1.38;;;;;;;9.85;65.32;97033.25;30836974;28;97365;-63
2023/11/05 08:18:01;;;;;;;3.53;1.60;;;;;;;9.81;65.66;97014.34;30837344;28;97537;-62
2023/11/05 08:33:01;;;;;;;1.63;1.10;;;;;;;9.97;65.51;96998.63;30836551;28;126566;-63
2023/11/05 08:48:01;;;;;;;3.00;1.17;;;;;;;10.49;65.46;97008.88;30835000;28;125246;-62
2023/11/05 09:03:02;;;;;;;2.50;1.40;;;;;;;11.11;64.49;96988.28;30835466;28;96963;-63
2023/11/05 09:18:02;;;;;;;2.97;1.40;;;;;;;11.54;63.89;96982.19;30853278;28;97736;-62
2023/11/05 09:33:03;;;;;;;3.70;1.60;;;;;;;11.79;63.37;96986.94;30851932;28;126561;-62
2023/11/05 09:48:06;;;;;;;2.08;1.40;;;;;;;12.15;62.60;96971.16;30850473;28;96811;-63
2023/11/05 10:03:08;;;;;;;2.93;1.40;;;;;;;15.71;59.91;96971.31;30849971;28;97190;-63
2023/11/05 10:18:13;;;;;;;4.50;1.47;;;;;;;20.10;52.66;96963.34;30848895;28;97322;-63
2023/11/05 10:33:14;;;;;;;5.17;2.73;;;;;;;21.34;44.18;96964.38;30849653;28;97354;-63
2023/11/05 10:48:15;;;;;;;5.57;2.40;;;;;;;19.05;46.06;96945.69;30846448;28;97118;-62
2023/11/05 11:03:15;;;;;;;13.83;7.33;;;;;;;21.70;40.60;96934.25;30843937;28;97508;-64
2023/11/05 11:18:20;;;;;;;16.70;9.37;;;;;;;17.35;44.66;96930.06;30842004;28;96732;-63
2023/11/05 11:33:22;;;;;;;23.40;13.87;;;;;;;17.57;46.15;96908.69;30839995;28;97349;-63
2023/11/05 11:48:25;;;;;;;3.80;1.67;;;;;;;20.52;40.77;96935.97;30839121;28;97200;-63
2023/11/05 12:03:27;;;;;;;5.80;2.00;;;;;;;27.11;34.12;96926.66;30838280;28;97542;-62
2023/11/05 12:18:28;;;;;;;8.87;4.40;;;;;;;20.27;38.67;96924.78;30836257;28;96766;-63
2023/11/05 12:33:32;;;;;;;3.08;1.40;;;;;;;15.85;45.34;96923.94;30835774;28;97464;-62
2023/11/05 12:48:33;;;;;;;6.27;3.03;;;;;;;15.18;48.40;96913.81;30833103;28;96781;-63
2023/11/05 13:03:33;;;;;;;9.98;4.32;;;;;;;15.23;48.93;96923.72;30833165;28;97318;-63
2023/11/05 13:18:33;;;;;;;3.67;1.80;;;;;;;13.41;52.82;96929.25;30832292;28;96833;-62
2023/11/05 13:33:34;;;;;;;6.68;2.35;;;;;;;12.55;55.49;96945.72;30831212;28;112833;-63
2023/11/05 13:48:34;;;;;;;4.15;2.00;;;;;;;12.24;57.16;96955.47;30831517;28;97172;-63
2023/11/05 14:03:35;;;;;;;4.97;2.92;;;;;;;11.97;58.91;96975.88;30848334;28;124768;-63
2023/11/05 14:18:36;;;;;;;9.23;4.10;;;;;;;11.97;60.04;96973.22;30849410;28;124483;-64
2023/11/05 14:33:39;;;;;;;7.60;3.40;;;;;;;12.06;59.79;97002.88;30847825;28;97594;-63
2023/11/05 14:48:39;;;;;;;9.13;5.03;;;;;;;11.90;60.97;97019.81;30845716;28;96735;-64
2023/11/05 15:03:40;;;;;;;31.15;13.63;;;;;;;11.55;62.51;97023.81;30844997;28;96783;-62
2023/11/05 15:18:40;;;;;;;12.82;5.38;;;;;;;11.43;63.61;97038.09;30842232;28;125104;-63
2023/11/05 15:33:42;;;;;;;5.32;2.47;;;;;;;11.69;63.57;97068.44;30841915;28;112394;-63
2023/11/05 15:48:42;;;;;;;4.00;1.40;;;;;;;11.89;62.47;97084.88;30838268;28;96783;-62
2023/11/05 16:03:42;;;;;;;3.03;1.38;;;;;;;11.80;61.85;97112.00;30838503;28;101686;-62
2023/11/05 16:18:44;;;;;;;3.27;1.30;;;;;;;11.34;61.34;97127.56;30837149;28;97449;-63
2023/11/05 16:33:45;;;;;;;3.92;1.60;;;;;;;10.80;62.36;97158.38;30835850;28;125385;-64
2023/11/05 16:48:46;;;;;;;4.70;2.30;;;;;;;10.46;62.74;97206.31;30834946;28;97171;-64
2023/11/05 17:03:47;;;;;;;2.77;1.80;;;;;;;10.54;62.88;97228.25;30833888;28;97196;-63
2023/11/05 17:18:48;;;;;;;2.95;0.70;;;;;;;10.61;63.16;97244.88;30832988;28;96741;-64
2023/11/05 17:33:48;;;;;;;2.90;1.02;;;;;;;10.63;63.48;97259.56;30846767;28;125319;-62
2023/11/05 17:48:48;;;;;;;2.40;1.20;;;;;;;10.63;64.19;97280.03;30850852;28;122272;-63
2023/11/05 18:03:49;;;;;;;2.22;1.20;;;;;;;10.51;65.15;97298.75;30851078;28;97267;-62
2023/11/05 18:18:49;;;;;;;4.13;1.30;;;;;;;10.40;65.94;97313.75;30849435;28;106115;-63
2023/11/05 18:33:50;;;;;;;4.45;1.27;;;;;;;10.42;66.67;97326.81;30847936;28;107159;-62
2023/11/05 18:48:50;;;;;;;2.47;1.40;;;;;;;10.54;68.11;97351.53;30845564;28;97591;-63
2023/11/05 19:03:50;;;;;;;3.97;1.45;;;;;;;10.81;67.50;97378.34;30843713;28;126889;-63
2023/11/05 19:18:51;;;;;;;2.30;1.25;;;;;;;10.95;66.92;97400.13;30836639;28;125372;-63
2023/11/05 19:33:51;;;;;;;2.42;1.17;;;;;;;10.95;67.42;97415.31;30835696;28;126787;-65
2023/11/05 19:48:51;;;;;;;7.15;2.38;;;;;;;11.00;67.26;97436.69;30838478;28;97158;-63
2023/11/05 20:03:54;;;;;;;5.80;2.47;;;;;;;11.03;67.32;97476.19;30837542;28;126663;-63
2023/11/05 20:18:54;;;;;;;4.67;2.20;;;;;;;11.03;66.39;97486.84;30838622;28;97070;-63
2023/11/05 20:33:55;;;;;;;35.65;18.25;;;;;;;11.08;66.84;97516.22;30886803;28;97689;-63
2023/11/05 20:48:55;;;;;;;2.88;1.60;;;;;;;11.11;66.10;97550.41;30820211;28;98196;-63
2023/11/05 21:03:55;;;;;;;3.58;2.00;;;;;;;11.06;66.06;97571.63;30931421;28;97566;-64
2023/11/05 21:18:56;;;;;;;3.92;2.28;;;;;;;10.88;66.22;97595.75;30985279;28;124640;-63
2023/11/05 21:33:56;;;;;;;4.57;2.13;;;;;;;10.74;66.84;97617.31;30960053;28;125375;-63
2023/11/05 21:48:57;;;;;;;3.45;1.75;;;;;;;10.54;67.22;97643.50;30904183;28;125675;-63
2023/11/05 22:03:57;;;;;;;3.63;1.95;;;;;;;10.33;67.18;97685.59;30996209;28;97202;-63
2023/11/05 22:18:57;;;;;;;2.78;1.60;;;;;;;10.15;67.38;97699.78;30956404;28;125344;-64
2023/11/05 22:33:57;;;;;;;2.80;1.73;;;;;;;9.97;67.91;97729.94;30976847;28;124493;-63
2023/11/05 22:48:58;;;;;;;2.70;1.63;;;;;;;9.88;68.22;97761.34;30972977;28;126834;-64
2023/11/05 23:03:58;;;;;;;2.53;1.58;;;;;;;10.07;68.52;97806.53;30986362;28;125530;-64
2023/11/05 23:18:58;;;;;;;1.98;1.38;;;;;;;10.14;68.69;97818.72;30981420;28;126701;-64
2023/11/05 23:33:58;;;;;;;2.60;1.00;;;;;;;10.00;69.01;97846.50;30940244;28;125345;-63
2023/11/05 23:48:59;;;;;;;1.58;0.85;;;;;;;9.99;68.65;97871.47;30965835;28;126808;-64
